Midfield, TX (77458)

5:24 PM CDT on April 26, 2017 (GMT -0500)
Danevang | | Change Station
Active Advisory: Beach Hazard Statement

Elev 79 ft 29.06 °N, 96.14 °W | Updated 2 minutes ago

Clear
Clear
93.0 °F
Feels Like 93 °F
N
8.5
Wind Variable Wind from NNW
Gusts 10.0 mph

Today
High -- | Low -- °F
--% Chance of Precip.
Yesterday
High -- | Low -- °F
Precip. -- in
Pressure 29.54 in
Visibility 6.0 miles
Clouds Few 7500 ft
Heat Index 93 °F
Dew Point 60 °F
Humidity 34%
Rainfall 0.02 in
Snow Depth Not available.
6:47 AM 7:57 PM
New Moon, 0% visible
METAR KPSX 262153Z AUTO 18009KT 6SM HZ FEW075 28/23 A2954 RMK AO2 SLP001 T02830233 TSNO
Pressure 29.54 in
Visibility 6.0 miles
Clouds Few 7500 ft
Heat Index 93 °F
Dew Point 60 °F
Humidity 34%
Rainfall 0.02 in
Snow Depth Not available.
6:47 AM 7:57 PM
New Moon, 0% visible
METAR KPSX 262153Z AUTO 18009KT 6SM HZ FEW075 28/23 A2954 RMK AO2 SLP001 T02830233 TSNO

Get Your Daily Forecast Email!

Thanks for signing up!

Be on the lookout for a verification email in your inbox.

You'll start receiving severe weather alerts in your inbox..

×

10-Day Weather Forecast

Almanac

Astronomy

Apr. 26, 2017 Rise Set
Actual Time
Civil Twilight
Nautical Twilight
Astronomical Twilight
Moon
Length of Visible Light
Length of Day
Tomorrow will be .
, % of the Moon is Illuminated

Today's Extremes

State Highs State Lows

Community

WunderPhotos

WunderBlog® & News

Nearby

Air Quality

  Air Quality AQ Index Pollutant
Not available.

Snow Depth

Station Depth Elevation

Earthquake Activity

City Distance Mag. Time & Date
Minimum magnitude displayed is 2.5.

Coastal Water Temperatures

Place Temperature

Stations

Nearby Weather Stations

Station Location Temp. Windchill Dew Point Humidity Wind Precip. Elev Updated Type
                   

Watches & Warnings

Beach Hazard Statement
Issued: 10:08 AM CDT Apr. 26, 2017 – National Weather Service

... Beach hazards statement in effect through this evening...

The National Weather Service in Houston/Galveston has issued a
beach hazards statement for rip currents and elevated tides, which is in
effect through this evening.

* Hazards... rip currents and elevated tides 1 to 1.5 feet above normal.

* Timing... this morning through this evening.

* Location... all Gulf facing beaches along the Upper Texas coast.

* Potential impacts... Galveston beach patrol is flying red flags
for strong rip current conditions. It is hazardous to swim in
these areas. Higher tides and wave action could impact Bolivar
Peninsula and Highway 87 at high tide this afternoon.

Precautionary/preparedness actions...

A beach hazards statement is issued when threats such as rip
currents... longshore currents... sneaker waves and other hazards
create life-threatening conditions in the surf zone. Caution
should be used when in or near the water.